sensor_id;sensor_type;location;lat;lon;timestamp;temperature;humidity
70708;SHT30;58277;47.316;18.908;2022-09-21T00:00:20;9.52;85.60
70708;SHT30;58277;47.316;18.908;2022-09-21T00:02:42;9.56;85.68
70708;SHT30;58277;47.316;18.908;2022-09-21T00:05:05;9.49;85.78
70708;SHT30;58277;47.316;18.908;2022-09-21T00:07:27;9.43;86.00
70708;SHT30;58277;47.316;18.908;2022-09-21T00:09:50;9.38;85.95
70708;SHT30;58277;47.316;18.908;2022-09-21T00:12:12;9.38;86.26
70708;SHT30;58277;47.316;18.908;2022-09-21T00:14:35;9.32;86.59
70708;SHT30;58277;47.316;18.908;2022-09-21T00:16:57;9.39;86.10
70708;SHT30;58277;47.316;18.908;2022-09-21T00:19:20;9.35;86.25
70708;SHT30;58277;47.316;18.908;2022-09-21T00:21:42;9.38;86.05
70708;SHT30;58277;47.316;18.908;2022-09-21T00:24:06;9.38;85.93
70708;SHT30;58277;47.316;18.908;2022-09-21T00:26:29;9.38;86.07
70708;SHT30;58277;47.316;18.908;2022-09-21T00:28:53;9.34;85.98
70708;SHT30;58277;47.316;18.908;2022-09-21T00:31:16;9.32;86.09
70708;SHT30;58277;47.316;18.908;2022-09-21T00:33:41;9.25;86.13
70708;SHT30;58277;47.316;18.908;2022-09-21T00:36:06;9.21;86.17
70708;SHT30;58277;47.316;18.908;2022-09-21T00:38:29;9.35;85.83
70708;SHT30;58277;47.316;18.908;2022-09-21T00:40:52;9.28;85.93
70708;SHT30;58277;47.316;18.908;2022-09-21T00:43:16;9.25;85.98
70708;SHT30;58277;47.316;18.908;2022-09-21T00:45:39;9.36;85.76
70708;SHT30;58277;47.316;18.908;2022-09-21T00:48:02;9.27;85.63
70708;SHT30;58277;47.316;18.908;2022-09-21T00:50:25;9.25;85.74
70708;SHT30;58277;47.316;18.908;2022-09-21T00:52:53;9.29;85.67
70708;SHT30;58277;47.316;18.908;2022-09-21T00:55:36;9.29;85.72
70708;SHT30;58277;47.316;18.908;2022-09-21T00:58:06;9.29;85.84
70708;SHT30;58277;47.316;18.908;2022-09-21T01:00:30;9.27;85.95
70708;SHT30;58277;47.316;18.908;2022-09-21T01:02:54;9.27;86.02
70708;SHT30;58277;47.316;18.908;2022-09-21T01:05:22;9.24;85.63
70708;SHT30;58277;47.316;18.908;2022-09-21T01:07:47;9.21;86.03
70708;SHT30;58277;47.316;18.908;2022-09-21T01:10:13;9.31;85.69
70708;SHT30;58277;47.316;18.908;2022-09-21T01:20:50;9.19;85.54
70708;SHT30;58277;47.316;18.908;2022-09-21T01:26:14;9.11;85.71
70708;SHT30;58277;47.316;18.908;2022-09-21T01:31:40;9.08;85.76
70708;SHT30;58277;47.316;18.908;2022-09-21T01:34:08;9.08;85.78
70708;SHT30;58277;47.316;18.908;2022-09-21T01:36:32;9.12;85.81
70708;SHT30;58277;47.316;18.908;2022-09-21T01:39:03;9.15;85.70
70708;SHT30;58277;47.316;18.908;2022-09-21T01:41:29;9.21;85.50
70708;SHT30;58277;47.316;18.908;2022-09-21T01:43:56;9.14;85.35
70708;SHT30;58277;47.316;18.908;2022-09-21T01:46:21;9.15;85.37
70708;SHT30;58277;47.316;18.908;2022-09-21T01:48:47;9.15;85.29
70708;SHT30;58277;47.316;18.908;2022-09-21T01:51:14;9.18;85.33
70708;SHT30;58277;47.316;18.908;2022-09-21T01:53:42;9.19;85.44
70708;SHT30;58277;47.316;18.908;2022-09-21T01:58:43;9.01;85.55
70708;SHT30;58277;47.316;18.908;2022-09-21T02:01:10;9.01;85.78
70708;SHT30;58277;47.316;18.908;2022-09-21T02:03:39;9.01;85.91
70708;SHT30;58277;47.316;18.908;2022-09-21T02:06:05;9.07;85.54
70708;SHT30;58277;47.316;18.908;2022-09-21T02:08:31;8.96;85.90
70708;SHT30;58277;47.316;18.908;2022-09-21T02:10:54;8.91;86.20
70708;SHT30;58277;47.316;18.908;2022-09-21T02:13:19;8.91;86.26
70708;SHT30;58277;47.316;18.908;2022-09-21T02:16:02;9.01;85.76
70708;SHT30;58277;47.316;18.908;2022-09-21T02:22:01;9.19;85.09
70708;SHT30;58277;47.316;18.908;2022-09-21T02:24:44;9.27;85.01
70708;SHT30;58277;47.316;18.908;2022-09-21T02:29:59;9.48;84.44
70708;SHT30;58277;47.316;18.908;2022-09-21T02:37:52;9.52;83.88
70708;SHT30;58277;47.316;18.908;2022-09-21T02:40:28;9.65;83.76
70708;SHT30;58277;47.316;18.908;2022-09-21T02:42:57;9.67;83.50
70708;SHT30;58277;47.316;18.908;2022-09-21T02:45:26;9.67;83.39
70708;SHT30;58277;47.316;18.908;2022-09-21T02:47:57;9.72;83.25
70708;SHT30;58277;47.316;18.908;2022-09-21T02:50:24;9.72;83.15
70708;SHT30;58277;47.316;18.908;2022-09-21T02:52:49;9.79;83.04
70708;SHT30;58277;47.316;18.908;2022-09-21T02:55:13;9.80;83.00
70708;SHT30;58277;47.316;18.908;2022-09-21T02:57:38;9.79;82.82
70708;SHT30;58277;47.316;18.908;2022-09-21T03:00:01;9.76;83.05
70708;SHT30;58277;47.316;18.908;2022-09-21T03:02:41;9.73;83.12
70708;SHT30;58277;47.316;18.908;2022-09-21T03:05:04;9.62;83.16
70708;SHT30;58277;47.316;18.908;2022-09-21T03:07:27;9.59;83.75
70708;SHT30;58277;47.316;18.908;2022-09-21T03:09:50;9.55;83.93
70708;SHT30;58277;47.316;18.908;2022-09-21T03:12:12;9.45;84.51
70708;SHT30;58277;47.316;18.908;2022-09-21T03:14:35;9.48;84.19
70708;SHT30;58277;47.316;18.908;2022-09-21T03:16:58;9.40;84.29
70708;SHT30;58277;47.316;18.908;2022-09-21T03:19:22;9.35;84.77
70708;SHT30;58277;47.316;18.908;2022-09-21T03:21:44;9.35;84.81
70708;SHT30;58277;47.316;18.908;2022-09-21T03:24:07;9.22;85.17
70708;SHT30;58277;47.316;18.908;2022-09-21T03:26:29;9.29;84.97
70708;SHT30;58277;47.316;18.908;2022-09-21T03:28:52;9.25;84.98
70708;SHT30;58277;47.316;18.908;2022-09-21T03:31:17;9.32;84.74
70708;SHT30;58277;47.316;18.908;2022-09-21T03:33:40;9.34;84.31
70708;SHT30;58277;47.316;18.908;2022-09-21T03:36:03;9.43;84.27
70708;SHT30;58277;47.316;18.908;2022-09-21T03:38:25;9.50;84.10
70708;SHT30;58277;47.316;18.908;2022-09-21T03:40:48;9.49;84.04
70708;SHT30;58277;47.316;18.908;2022-09-21T03:43:11;9.53;84.08
70708;SHT30;58277;47.316;18.908;2022-09-21T03:45:34;9.59;83.63
70708;SHT30;58277;47.316;18.908;2022-09-21T03:47:58;9.65;83.32
70708;SHT30;58277;47.316;18.908;2022-09-21T03:50:20;9.60;83.36
70708;SHT30;58277;47.316;18.908;2022-09-21T03:52:43;9.57;83.71
70708;SHT30;58277;47.316;18.908;2022-09-21T03:55:08;9.57;83.74
70708;SHT30;58277;47.316;18.908;2022-09-21T03:57:31;9.55;83.30
70708;SHT30;58277;47.316;18.908;2022-09-21T03:59:53;9.52;83.49
70708;SHT30;58277;47.316;18.908;2022-09-21T04:02:16;9.52;83.63
70708;SHT30;58277;47.316;18.908;2022-09-21T04:04:39;9.57;83.63
70708;SHT30;58277;47.316;18.908;2022-09-21T04:07:01;9.52;83.58
70708;SHT30;58277;47.316;18.908;2022-09-21T04:09:25;9.52;83.86
70708;SHT30;58277;47.316;18.908;2022-09-21T04:11:47;9.43;83.87
70708;SHT30;58277;47.316;18.908;2022-09-21T04:14:11;9.35;83.86
70708;SHT30;58277;47.316;18.908;2022-09-21T04:16:33;9.39;83.68
70708;SHT30;58277;47.316;18.908;2022-09-21T04:18:56;9.27;83.92
70708;SHT30;58277;47.316;18.908;2022-09-21T04:21:19;9.27;84.35
70708;SHT30;58277;47.316;18.908;2022-09-21T04:23:43;9.25;84.43
70708;SHT30;58277;47.316;18.908;2022-09-21T04:26:05;9.24;84.44
70708;SHT30;58277;47.316;18.908;2022-09-21T04:28:28;9.21;84.80
70708;SHT30;58277;47.316;18.908;2022-09-21T04:30:52;9.24;84.39
70708;SHT30;58277;47.316;18.908;2022-09-21T04:33:15;9.18;84.90
70708;SHT30;58277;47.316;18.908;2022-09-21T04:35:37;9.22;84.68
70708;SHT30;58277;47.316;18.908;2022-09-21T04:38:00;9.17;84.63
70708;SHT30;58277;47.316;18.908;2022-09-21T04:40:23;9.21;84.55
70708;SHT30;58277;47.316;18.908;2022-09-21T04:42:52;9.21;84.26
70708;SHT30;58277;47.316;18.908;2022-09-21T04:45:15;9.28;84.15
70708;SHT30;58277;47.316;18.908;2022-09-21T04:47:37;9.36;83.99
70708;SHT30;58277;47.316;18.908;2022-09-21T04:50:21;9.35;83.70
70708;SHT30;58277;47.316;18.908;2022-09-21T04:52:43;9.45;83.52
70708;SHT30;58277;47.316;18.908;2022-09-21T04:55:06;9.52;83.25
70708;SHT30;58277;47.316;18.908;2022-09-21T04:57:29;9.53;83.00
70708;SHT30;58277;47.316;18.908;2022-09-21T04:59:52;9.65;82.69
70708;SHT30;58277;47.316;18.908;2022-09-21T05:02:15;9.70;82.76
70708;SHT30;58277;47.316;18.908;2022-09-21T05:04:37;9.82;82.65
70708;SHT30;58277;47.316;18.908;2022-09-21T05:07:00;9.89;82.45
70708;SHT30;58277;47.316;18.908;2022-09-21T05:09:22;9.93;82.04
70708;SHT30;58277;47.316;18.908;2022-09-21T05:12:04;10.01;82.05
70708;SHT30;58277;47.316;18.908;2022-09-21T05:14:27;10.11;81.34
70708;SHT30;58277;47.316;18.908;2022-09-21T05:16:49;10.00;81.15
70708;SHT30;58277;47.316;18.908;2022-09-21T05:19:12;10.00;81.67
70708;SHT30;58277;47.316;18.908;2022-09-21T05:21:35;10.07;81.72
70708;SHT30;58277;47.316;18.908;2022-09-21T05:23:58;10.01;81.61
70708;SHT30;58277;47.316;18.908;2022-09-21T05:26:23;10.05;81.77
70708;SHT30;58277;47.316;18.908;2022-09-21T05:28:47;10.21;81.21
70708;SHT30;58277;47.316;18.908;2022-09-21T05:38:46;10.81;78.49
70708;SHT30;58277;47.316;18.908;2022-09-21T05:41:09;10.81;78.72
70708;SHT30;58277;47.316;18.908;2022-09-21T05:43:32;10.83;79.02
70708;SHT30;58277;47.316;18.908;2022-09-21T05:46:04;10.75;79.11
70708;SHT30;58277;47.316;18.908;2022-09-21T05:49:33;10.59;79.77
70708;SHT30;58277;47.316;18.908;2022-09-21T05:54:31;10.45;80.31
70708;SHT30;58277;47.316;18.908;2022-09-21T06:03:38;10.70;79.26
70708;SHT30;58277;47.316;18.908;2022-09-21T06:05:54;10.55;79.84
70708;SHT30;58277;47.316;18.908;2022-09-21T06:08:16;10.52;80.46
70708;SHT30;58277;47.316;18.908;2022-09-21T06:10:39;10.62;79.69
70708;SHT30;58277;47.316;18.908;2022-09-21T06:13:02;10.72;79.44
70708;SHT30;58277;47.316;18.908;2022-09-21T06:15:25;10.83;79.20
70708;SHT30;58277;47.316;18.908;2022-09-21T06:17:47;10.81;79.08
70708;SHT30;58277;47.316;18.908;2022-09-21T06:20:10;10.90;79.05
70708;SHT30;58277;47.316;18.908;2022-09-21T06:22:33;10.93;79.13
70708;SHT30;58277;47.316;18.908;2022-09-21T06:24:56;11.03;78.97
70708;SHT30;58277;47.316;18.908;2022-09-21T06:27:19;11.00;78.95
70708;SHT30;58277;47.316;18.908;2022-09-21T06:29:41;10.89;79.11
70708;SHT30;58277;47.316;18.908;2022-09-21T06:32:04;10.79;79.50
70708;SHT30;58277;47.316;18.908;2022-09-21T06:34:27;10.80;79.66
70708;SHT30;58277;47.316;18.908;2022-09-21T06:36:49;10.68;80.18
70708;SHT30;58277;47.316;18.908;2022-09-21T06:39:12;10.86;79.86
70708;SHT30;58277;47.316;18.908;2022-09-21T06:41:35;11.13;79.25
70708;SHT30;58277;47.316;18.908;2022-09-21T06:44:04;11.18;78.89
70708;SHT30;58277;47.316;18.908;2022-09-21T06:46:27;11.24;78.74
70708;SHT30;58277;47.316;18.908;2022-09-21T06:48:51;11.35;78.30
70708;SHT30;58277;47.316;18.908;2022-09-21T06:51:14;11.55;78.54
70708;SHT30;58277;47.316;18.908;2022-09-21T06:53:36;11.90;77.35
70708;SHT30;58277;47.316;18.908;2022-09-21T06:56:01;12.00;77.20
70708;SHT30;58277;47.316;18.908;2022-09-21T06:58:25;11.87;77.13
70708;SHT30;58277;47.316;18.908;2022-09-21T07:00:49;12.07;76.50
70708;SHT30;58277;47.316;18.908;2022-09-21T07:03:12;12.24;75.58
70708;SHT30;58277;47.316;18.908;2022-09-21T07:05:35;12.33;75.08
70708;SHT30;58277;47.316;18.908;2022-09-21T07:07:57;12.23;75.77
70708;SHT30;58277;47.316;18.908;2022-09-21T07:10:21;12.89;73.76
70708;SHT30;58277;47.316;18.908;2022-09-21T07:12:44;13.26;72.27
70708;SHT30;58277;47.316;18.908;2022-09-21T07:15:07;13.28;72.18
70708;SHT30;58277;47.316;18.908;2022-09-21T07:17:36;13.44;71.51
70708;SHT30;58277;47.316;18.908;2022-09-21T07:19:59;13.24;71.49
70708;SHT30;58277;47.316;18.908;2022-09-21T07:22:23;12.99;72.31
70708;SHT30;58277;47.316;18.908;2022-09-21T07:24:46;12.87;73.06
70708;SHT30;58277;47.316;18.908;2022-09-21T07:27:08;12.84;73.98
70708;SHT30;58277;47.316;18.908;2022-09-21T07:29:31;12.69;73.67
70708;SHT30;58277;47.316;18.908;2022-09-21T07:31:54;12.92;73.37
70708;SHT30;58277;47.316;18.908;2022-09-21T07:34:17;12.96;73.46
70708;SHT30;58277;47.316;18.908;2022-09-21T07:36:39;12.87;72.30
70708;SHT30;58277;47.316;18.908;2022-09-21T07:39:02;12.89;72.14
70708;SHT30;58277;47.316;18.908;2022-09-21T07:41:25;13.00;72.77
70708;SHT30;58277;47.316;18.908;2022-09-21T07:43:47;12.99;73.05
70708;SHT30;58277;47.316;18.908;2022-09-21T07:46:12;13.15;72.43
70708;SHT30;58277;47.316;18.908;2022-09-21T07:48:36;13.28;72.00
70708;SHT30;58277;47.316;18.908;2022-09-21T07:51:00;13.40;71.71
70708;SHT30;58277;47.316;18.908;2022-09-21T07:53:25;13.57;71.22
70708;SHT30;58277;47.316;18.908;2022-09-21T07:55:48;13.63;70.68
70708;SHT30;58277;47.316;18.908;2022-09-21T07:58:11;13.67;70.53
70708;SHT30;58277;47.316;18.908;2022-09-21T08:00:53;13.88;70.18
70708;SHT30;58277;47.316;18.908;2022-09-21T08:03:16;13.92;69.84
70708;SHT30;58277;47.316;18.908;2022-09-21T08:05:39;13.85;68.70
70708;SHT30;58277;47.316;18.908;2022-09-21T08:08:02;13.88;69.15
70708;SHT30;58277;47.316;18.908;2022-09-21T08:10:25;13.95;69.90
70708;SHT30;58277;47.316;18.908;2022-09-21T08:12:49;14.09;70.16
70708;SHT30;58277;47.316;18.908;2022-09-21T08:15:12;14.18;69.97
70708;SHT30;58277;47.316;18.908;2022-09-21T08:17:56;14.13;68.29
70708;SHT30;58277;47.316;18.908;2022-09-21T08:20:20;14.36;68.96
70708;SHT30;58277;47.316;18.908;2022-09-21T08:22:43;14.32;68.31
70708;SHT30;58277;47.316;18.908;2022-09-21T08:25:06;14.26;67.31
70708;SHT30;58277;47.316;18.908;2022-09-21T08:27:28;14.23;67.12
70708;SHT30;58277;47.316;18.908;2022-09-21T08:29:51;14.23;66.78
70708;SHT30;58277;47.316;18.908;2022-09-21T08:32:14;14.33;67.36
70708;SHT30;58277;47.316;18.908;2022-09-21T08:34:54;14.44;66.25
70708;SHT30;58277;47.316;18.908;2022-09-21T08:37:17;14.43;66.62
70708;SHT30;58277;47.316;18.908;2022-09-21T08:39:41;14.55;65.64
70708;SHT30;58277;47.316;18.908;2022-09-21T08:44:40;14.78;65.83
70708;SHT30;58277;47.316;18.908;2022-09-21T08:49:35;15.04;64.19
70708;SHT30;58277;47.316;18.908;2022-09-21T08:52:02;15.28;65.42
70708;SHT30;58277;47.316;18.908;2022-09-21T08:54:58;15.24;63.76
70708;SHT30;58277;47.316;18.908;2022-09-21T08:57:31;15.38;63.06
70708;SHT30;58277;47.316;18.908;2022-09-21T08:59:54;15.46;64.12
70708;SHT30;58277;47.316;18.908;2022-09-21T09:05:42;15.42;62.41
70708;SHT30;58277;47.316;18.908;2022-09-21T09:11:08;15.64;62.91
70708;SHT30;58277;47.316;18.908;2022-09-21T09:16:21;15.64;59.85
70708;SHT30;58277;47.316;18.908;2022-09-21T09:24:08;15.74;59.17
70708;SHT30;58277;47.316;18.908;2022-09-21T09:26:45;15.59;60.23
70708;SHT30;58277;47.316;18.908;2022-09-21T09:29:23;15.57;59.70
70708;SHT30;58277;47.316;18.908;2022-09-21T09:31:48;15.62;60.31
70708;SHT30;58277;47.316;18.908;2022-09-21T09:34:20;15.52;59.07
70708;SHT30;58277;47.316;18.908;2022-09-21T09:36:51;15.67;60.89
70708;SHT30;58277;47.316;18.908;2022-09-21T09:39:20;15.56;60.94
70708;SHT30;58277;47.316;18.908;2022-09-21T09:50:42;15.86;60.09
70708;SHT30;58277;47.316;18.908;2022-09-21T09:53:11;15.96;58.81
70708;SHT30;58277;47.316;18.908;2022-09-21T09:55:46;16.02;59.07
70708;SHT30;58277;47.316;18.908;2022-09-21T09:58:17;15.97;59.35
70708;SHT30;58277;47.316;18.908;2022-09-21T10:00:40;16.04;59.31
70708;SHT30;58277;47.316;18.908;2022-09-21T10:03:15;16.11;58.12
70708;SHT30;58277;47.316;18.908;2022-09-21T10:05:38;15.94;59.07
70708;SHT30;58277;47.316;18.908;2022-09-21T10:08:02;16.00;59.07
70708;SHT30;58277;47.316;18.908;2022-09-21T10:12:56;16.12;59.00
70708;SHT30;58277;47.316;18.908;2022-09-21T10:15:23;16.14;59.22
70708;SHT30;58277;47.316;18.908;2022-09-21T10:17:47;16.05;59.01
70708;SHT30;58277;47.316;18.908;2022-09-21T10:20:15;16.15;59.83
70708;SHT30;58277;47.316;18.908;2022-09-21T10:22:45;16.29;59.48
70708;SHT30;58277;47.316;18.908;2022-09-21T10:25:14;16.36;58.86
70708;SHT30;58277;47.316;18.908;2022-09-21T10:27:42;16.42;58.13
70708;SHT30;58277;47.316;18.908;2022-09-21T10:32:54;16.67;56.77
70708;SHT30;58277;47.316;18.908;2022-09-21T10:35:18;16.65;56.04
70708;SHT30;58277;47.316;18.908;2022-09-21T10:37:43;16.79;56.64
70708;SHT30;58277;47.316;18.908;2022-09-21T10:42:42;17.04;55.30
70708;SHT30;58277;47.316;18.908;2022-09-21T10:45:32;17.38;56.10
70708;SHT30;58277;47.316;18.908;2022-09-21T10:48:08;17.55;54.10
70708;SHT30;58277;47.316;18.908;2022-09-21T10:50:36;17.79;54.33
70708;SHT30;58277;47.316;18.908;2022-09-21T10:55:30;17.75;53.67
70708;SHT30;58277;47.316;18.908;2022-09-21T10:57:54;17.61;53.46
70708;SHT30;58277;47.316;18.908;2022-09-21T11:02:48;17.73;53.18
70708;SHT30;58277;47.316;18.908;2022-09-21T11:07:48;17.66;53.38
70708;SHT30;58277;47.316;18.908;2022-09-21T11:10:18;17.76;54.34
70708;SHT30;58277;47.316;18.908;2022-09-21T11:12:51;18.18;52.68
70708;SHT30;58277;47.316;18.908;2022-09-21T11:18:04;18.93;53.00
70708;SHT30;58277;47.316;18.908;2022-09-21T11:20:42;18.76;50.90
70708;SHT30;58277;47.316;18.908;2022-09-21T11:23:14;18.81;51.95
70708;SHT30;58277;47.316;18.908;2022-09-21T11:25:47;18.66;52.16
70708;SHT30;58277;47.316;18.908;2022-09-21T11:28:23;18.45;53.12
70708;SHT30;58277;47.316;18.908;2022-09-21T11:33:40;18.52;52.42
70708;SHT30;58277;47.316;18.908;2022-09-21T11:36:15;18.91;51.45
70708;SHT30;58277;47.316;18.908;2022-09-21T11:38:55;19.19;51.25
70708;SHT30;58277;47.316;18.908;2022-09-21T11:41:48;19.26;51.80
70708;SHT30;58277;47.316;18.908;2022-09-21T11:58:54;19.06;48.33
70708;SHT30;58277;47.316;18.908;2022-09-21T12:09:24;18.66;49.89
70708;SHT30;58277;47.316;18.908;2022-09-21T12:22:14;19.09;48.74
70708;SHT30;58277;47.316;18.908;2022-09-21T12:24:46;19.22;48.16
70708;SHT30;58277;47.316;18.908;2022-09-21T12:27:33;19.23;48.78
70708;SHT30;58277;47.316;18.908;2022-09-21T12:30:10;18.95;50.00
70708;SHT30;58277;47.316;18.908;2022-09-21T12:33:00;18.23;51.03
70708;SHT30;58277;47.316;18.908;2022-09-21T12:46:03;17.46;51.67
70708;SHT30;58277;47.316;18.908;2022-09-21T12:48:38;17.66;52.54
70708;SHT30;58277;47.316;18.908;2022-09-21T12:51:35;17.89;53.37
70708;SHT30;58277;47.316;18.908;2022-09-21T12:54:07;18.09;51.04
70708;SHT30;58277;47.316;18.908;2022-09-21T12:56:50;18.27;50.75
70708;SHT30;58277;47.316;18.908;2022-09-21T13:09:11;18.33;45.99
70708;SHT30;58277;47.316;18.908;2022-09-21T13:11:52;18.52;47.34
70708;SHT30;58277;47.316;18.908;2022-09-21T13:14:17;18.40;45.32
70708;SHT30;58277;47.316;18.908;2022-09-21T13:16:40;18.17;44.23
70708;SHT30;58277;47.316;18.908;2022-09-21T13:19:16;17.99;46.25
70708;SHT30;58277;47.316;18.908;2022-09-21T13:21:41;17.87;47.74
70708;SHT30;58277;47.316;18.908;2022-09-21T13:24:20;17.55;48.96
70708;SHT30;58277;47.316;18.908;2022-09-21T13:26:57;17.31;50.44
70708;SHT30;58277;47.316;18.908;2022-09-21T13:29:30;17.21;51.10
70708;SHT30;58277;47.316;18.908;2022-09-21T13:34:33;17.08;52.44
70708;SHT30;58277;47.316;18.908;2022-09-21T13:44:50;17.51;49.16
70708;SHT30;58277;47.316;18.908;2022-09-21T13:47:33;17.58;49.37
70708;SHT30;58277;47.316;18.908;2022-09-21T13:49:57;17.52;49.80
70708;SHT30;58277;47.316;18.908;2022-09-21T13:52:27;17.39;49.75
70708;SHT30;58277;47.316;18.908;2022-09-21T13:54:57;17.45;50.00
70708;SHT30;58277;47.316;18.908;2022-09-21T13:57:31;17.58;49.06
70708;SHT30;58277;47.316;18.908;2022-09-21T14:02:37;17.10;51.95
70708;SHT30;58277;47.316;18.908;2022-09-21T14:07:41;16.96;53.68
70708;SHT30;58277;47.316;18.908;2022-09-21T14:10:06;17.02;53.92
70708;SHT30;58277;47.316;18.908;2022-09-21T14:12:33;17.04;54.54
70708;SHT30;58277;47.316;18.908;2022-09-21T14:15:33;17.23;53.59
70708;SHT30;58277;47.316;18.908;2022-09-21T14:20:37;17.41;53.98
70708;SHT30;58277;47.316;18.908;2022-09-21T14:25:57;17.80;52.12
70708;SHT30;58277;47.316;18.908;2022-09-21T14:28:41;17.80;51.19
70708;SHT30;58277;47.316;18.908;2022-09-21T14:31:19;17.79;50.41
70708;SHT30;58277;47.316;18.908;2022-09-21T14:33:46;17.94;51.28
70708;SHT30;58277;47.316;18.908;2022-09-21T14:36:16;18.10;51.92
70708;SHT30;58277;47.316;18.908;2022-09-21T14:38:47;18.26;51.27
70708;SHT30;58277;47.316;18.908;2022-09-21T14:41:18;18.30;50.84
70708;SHT30;58277;47.316;18.908;2022-09-21T14:43:42;18.24;50.83
70708;SHT30;58277;47.316;18.908;2022-09-21T15:00:16;17.36;51.96
70708;SHT30;58277;47.316;18.908;2022-09-21T15:02:43;17.14;52.11
70708;SHT30;58277;47.316;18.908;2022-09-21T15:07:48;17.34;50.94
70708;SHT30;58277;47.316;18.908;2022-09-21T15:17:57;17.03;49.92
70708;SHT30;58277;47.316;18.908;2022-09-21T15:20:21;16.77;50.62
70708;SHT30;58277;47.316;18.908;2022-09-21T15:22:47;16.75;51.71
70708;SHT30;58277;47.316;18.908;2022-09-21T15:25:12;16.69;51.85
70708;SHT30;58277;47.316;18.908;2022-09-21T15:27:35;16.58;51.48
70708;SHT30;58277;47.316;18.908;2022-09-21T15:33:00;16.33;52.98
70708;SHT30;58277;47.316;18.908;2022-09-21T15:35:26;16.17;51.87
70708;SHT30;58277;47.316;18.908;2022-09-21T15:37:50;15.98;52.19
70708;SHT30;58277;47.316;18.908;2022-09-21T15:40:24;15.90;52.91
70708;SHT30;58277;47.316;18.908;2022-09-21T15:43:01;15.94;52.41
70708;SHT30;58277;47.316;18.908;2022-09-21T15:45:44;15.87;52.56
70708;SHT30;58277;47.316;18.908;2022-09-21T15:48:09;15.93;53.48
70708;SHT30;58277;47.316;18.908;2022-09-21T15:50:34;15.77;53.28
70708;SHT30;58277;47.316;18.908;2022-09-21T15:53:07;15.80;54.03
70708;SHT30;58277;47.316;18.908;2022-09-21T15:55:34;15.79;54.06
70708;SHT30;58277;47.316;18.908;2022-09-21T15:57:57;15.74;53.93
70708;SHT30;58277;47.316;18.908;2022-09-21T16:00:23;15.73;54.26
70708;SHT30;58277;47.316;18.908;2022-09-21T16:03:17;15.73;54.71
70708;SHT30;58277;47.316;18.908;2022-09-21T16:05:49;15.70;54.83
70708;SHT30;58277;47.316;18.908;2022-09-21T16:10:49;15.63;55.91
70708;SHT30;58277;47.316;18.908;2022-09-21T16:13:22;15.64;56.48
70708;SHT30;58277;47.316;18.908;2022-09-21T16:16:13;15.60;56.53
70708;SHT30;58277;47.316;18.908;2022-09-21T16:18:50;15.43;57.38
70708;SHT30;58277;47.316;18.908;2022-09-21T16:21:26;15.46;57.39
70708;SHT30;58277;47.316;18.908;2022-09-21T16:23:51;15.46;57.55
70708;SHT30;58277;47.316;18.908;2022-09-21T16:26:22;15.42;58.03
70708;SHT30;58277;47.316;18.908;2022-09-21T16:28:45;15.38;58.21
70708;SHT30;58277;47.316;18.908;2022-09-21T16:31:28;15.19;59.23
70708;SHT30;58277;47.316;18.908;2022-09-21T16:38:38;14.87;59.94
70708;SHT30;58277;47.316;18.908;2022-09-21T16:41:01;14.77;61.50
70708;SHT30;58277;47.316;18.908;2022-09-21T16:43:24;14.70;60.62
70708;SHT30;58277;47.316;18.908;2022-09-21T16:45:47;14.68;60.56
70708;SHT30;58277;47.316;18.908;2022-09-21T16:48:11;14.64;60.80
70708;SHT30;58277;47.316;18.908;2022-09-21T16:50:34;14.51;61.51
70708;SHT30;58277;47.316;18.908;2022-09-21T16:52:56;14.53;61.70
70708;SHT30;58277;47.316;18.908;2022-09-21T16:55:19;14.50;61.77
70708;SHT30;58277;47.316;18.908;2022-09-21T16:57:48;14.40;62.41
70708;SHT30;58277;47.316;18.908;2022-09-21T17:00:12;14.33;63.01
70708;SHT30;58277;47.316;18.908;2022-09-21T17:02:35;14.23;63.09
70708;SHT30;58277;47.316;18.908;2022-09-21T17:04:57;14.08;63.25
70708;SHT30;58277;47.316;18.908;2022-09-21T17:07:20;14.11;63.50
70708;SHT30;58277;47.316;18.908;2022-09-21T17:09:44;14.08;63.55
70708;SHT30;58277;47.316;18.908;2022-09-21T17:12:12;14.08;63.76
70708;SHT30;58277;47.316;18.908;2022-09-21T17:14:36;14.02;63.72
70708;SHT30;58277;47.316;18.908;2022-09-21T17:17:20;13.88;64.56
70708;SHT30;58277;47.316;18.908;2022-09-21T17:19:45;13.78;64.14
70708;SHT30;58277;47.316;18.908;2022-09-21T17:22:11;13.74;64.45
70708;SHT30;58277;47.316;18.908;2022-09-21T17:24:38;13.63;64.83
70708;SHT30;58277;47.316;18.908;2022-09-21T17:27:13;13.61;64.89
70708;SHT30;58277;47.316;18.908;2022-09-21T17:29:36;13.54;65.12
70708;SHT30;58277;47.316;18.908;2022-09-21T17:32:01;13.51;64.85
70708;SHT30;58277;47.316;18.908;2022-09-21T17:34:28;13.47;64.89
70708;SHT30;58277;47.316;18.908;2022-09-21T17:36:53;13.44;64.90
70708;SHT30;58277;47.316;18.908;2022-09-21T17:39:18;13.33;65.11
70708;SHT30;58277;47.316;18.908;2022-09-21T17:41:53;13.40;65.18
70708;SHT30;58277;47.316;18.908;2022-09-21T17:49:35;13.16;66.36
70708;SHT30;58277;47.316;18.908;2022-09-21T17:51:59;13.10;66.07
70708;SHT30;58277;47.316;18.908;2022-09-21T17:54:40;13.05;66.34
70708;SHT30;58277;47.316;18.908;2022-09-21T17:57:10;13.02;66.53
70708;SHT30;58277;47.316;18.908;2022-09-21T17:59:35;12.96;66.50
70708;SHT30;58277;47.316;18.908;2022-09-21T18:02:00;12.87;66.54
70708;SHT30;58277;47.316;18.908;2022-09-21T18:04:23;12.84;67.30
70708;SHT30;58277;47.316;18.908;2022-09-21T18:06:47;12.85;67.37
70708;SHT30;58277;47.316;18.908;2022-09-21T18:09:10;12.84;66.92
70708;SHT30;58277;47.316;18.908;2022-09-21T18:15:00;12.74;67.17
70708;SHT30;58277;47.316;18.908;2022-09-21T18:25:36;12.58;68.28
70708;SHT30;58277;47.316;18.908;2022-09-21T18:28:18;12.54;68.24
70708;SHT30;58277;47.316;18.908;2022-09-21T18:30:54;12.51;68.70
70708;SHT30;58277;47.316;18.908;2022-09-21T18:33:26;12.45;69.03
70708;SHT30;58277;47.316;18.908;2022-09-21T18:44:28;12.26;70.34
70708;SHT30;58277;47.316;18.908;2022-09-21T18:50:05;12.12;71.35
70708;SHT30;58277;47.316;18.908;2022-09-21T18:55:21;12.12;71.58
70708;SHT30;58277;47.316;18.908;2022-09-21T18:57:47;12.07;71.79
70708;SHT30;58277;47.316;18.908;2022-09-21T19:00:12;12.06;71.99
70708;SHT30;58277;47.316;18.908;2022-09-21T19:02:36;12.04;72.13
70708;SHT30;58277;47.316;18.908;2022-09-21T19:05:19;12.10;72.21
70708;SHT30;58277;47.316;18.908;2022-09-21T19:07:53;12.06;72.48
70708;SHT30;58277;47.316;18.908;2022-09-21T19:11:50;11.94;72.97
70708;SHT30;58277;47.316;18.908;2022-09-21T19:14:04;11.83;73.25
70708;SHT30;58277;47.316;18.908;2022-09-21T19:16:34;11.85;73.38